METAR Data
IDs: Format: Raw Decoded Include TAF

Data at: 0653 UTC 14 Dec 2018

METAR for:KSPB (Scappoose Ind Airpar, OR, US)
Text:KSPB 140553Z AUTO 00000KT 10SM CLR 04/02 A2995 RMK AO2 SLP142 T00440022 10111 20033 56015
Temperature: 4.4°C ( 40°F)
Dewpoint: 2.2°C ( 36°F) [RH = 86%]
Pressure (altimeter):29.95 inches Hg (1014.3 mb) [Sea level pressure: 1014.2 mb]
Winds:calm
Visibility:10 or more sm (16+ km)
Ceiling:at least 12,000 feet AGL
Clouds:sky clear below 12,000 feet AGL
QC Flag:automated observation with no human augmentation